Aviation Digital Data Service (ADDS)

Output produced by METARs form (1545 UTC 20 May 2018)
found at http://aviationweather.gov/adds/metars/
 
KMGW 201424Z 2014/2112 VRB06KT 5SM BR BKN015 
     FM201600 26007KT P6SM BKN020 
     FM201700 26007KT P6SM BKN050 
     FM202000 29007KT P6SM SCT070 
     FM210600 00000KT 3SM BR BKN150